createdAt,value
2022-08-05T00:01:36.184Z,82.78
2022-08-05T00:04:16.517Z,83.07
2022-08-05T00:06:43.538Z,82.62
2022-08-05T00:09:13.073Z,82.80
2022-08-05T00:11:49.115Z,82.45
2022-08-05T00:14:26.507Z,83.26
2022-08-05T00:16:55.812Z,82.77
2022-08-05T00:19:33.646Z,82.51
2022-08-05T00:22:11.626Z,81.91
2022-08-05T00:24:42.348Z,82.49
2022-08-05T00:27:14.110Z,82.88
2022-08-05T00:29:46.318Z,82.99
2022-08-05T00:32:15.428Z,82.02
2022-08-05T00:35:05.436Z,81.23
2022-08-05T00:37:51.253Z,81.32
2022-08-05T00:40:26.692Z,80.98
2022-08-05T00:42:59.205Z,82.85
2022-08-05T00:45:39.075Z,82.29
2022-08-05T00:48:18.371Z,81.29
2022-08-05T00:50:54.595Z,81.39
2022-08-05T00:54:00.920Z,80.36
2022-08-05T00:56:11.486Z,80.21
2022-08-05T00:58:42.596Z,80.86
2022-08-05T01:01:42.033Z,81.02
2022-08-05T01:04:14.050Z,79.90
2022-08-05T01:06:43.688Z,80.59
2022-08-05T01:09:20.277Z,81.23
2022-08-05T01:11:53.594Z,80.13
2022-08-05T01:14:35.576Z,79.85
2022-08-05T01:17:45.786Z,80.24
2022-08-05T01:20:38.102Z,80.02
2022-08-05T01:23:15.413Z,79.56
2022-08-05T01:26:03.802Z,79.05
2022-08-05T01:28:49.204Z,79.46
2022-08-05T01:31:42.711Z,80.13
2022-08-05T01:34:26.811Z,79.06
2022-08-05T01:37:08.089Z,79.08
2022-08-05T01:39:46.321Z,78.77
2022-08-05T01:42:20.658Z,79.11
2022-08-05T01:44:53.888Z,78.15
2022-08-05T01:47:22.529Z,77.70
2022-08-05T01:50:01.494Z,77.62
2022-08-05T01:52:32.729Z,77.38
2022-08-05T01:55:06.989Z,75.88
2022-08-05T01:58:09.565Z,75.59
2022-08-05T02:00:35.604Z,75.98
2022-08-05T02:03:31.785Z,76.32
2022-08-05T02:06:23.952Z,76.58
2022-08-05T02:08:58.382Z,76.88
2022-08-05T02:11:32.788Z,77.03
2022-08-05T02:14:12.822Z,77.29
2022-08-05T02:16:46.993Z,76.81
2022-08-05T02:19:28.614Z,76.48
2022-08-05T02:22:26.462Z,76.86
2022-08-05T02:25:13.434Z,76.52
2022-08-05T02:27:58.431Z,77.37
2022-08-05T02:30:34.515Z,76.92
2022-08-05T02:33:07.608Z,75.87
2022-08-05T02:35:51.001Z,75.46
2022-08-05T02:38:35.290Z,75.36
2022-08-05T02:41:14.666Z,74.59
2022-08-05T02:44:06.561Z,74.47
2022-08-05T02:46:53.437Z,74.54
2022-08-05T02:49:36.671Z,74.52
2022-08-05T02:52:29.978Z,75.85
2022-08-05T02:55:05.361Z,77.45
2022-08-05T02:58:11.823Z,76.06
2022-08-05T03:00:22.916Z,75.07
2022-08-05T03:02:53.741Z,75.54
2022-08-05T03:05:21.931Z,76.73
2022-08-05T03:08:11.132Z,78.23
2022-08-05T03:11:50.040Z,77.27
2022-08-05T03:13:51.749Z,77.60
2022-08-05T03:16:26.699Z,77.47
2022-08-05T03:18:54.972Z,76.94
2022-08-05T03:21:28.706Z,77.70
2022-08-05T03:23:58.703Z,78.48
2022-08-05T03:26:32.041Z,79.45
2022-08-05T03:29:00.045Z,80.91
2022-08-05T03:31:56.083Z,82.46
2022-08-05T03:34:15.593Z,81.49
2022-08-05T03:36:42.665Z,81.02
2022-08-05T03:39:19.938Z,81.72
2022-08-05T03:41:57.386Z,81.18
2022-08-05T03:44:25.791Z,80.94
2022-08-05T03:46:58.413Z,81.00
2022-08-05T03:49:30.842Z,80.13
2022-08-05T03:52:49.266Z,82.24
2022-08-05T03:56:06.065Z,82.56
2022-08-05T03:58:19.282Z,81.30
2022-08-05T04:00:51.688Z,82.00
2022-08-05T04:03:28.542Z,80.71
2022-08-05T04:05:59.201Z,80.14
2022-08-05T04:08:36.221Z,80.26
2022-08-05T04:11:08.486Z,81.82
2022-08-05T04:13:50.281Z,81.32
2022-08-05T04:16:24.847Z,80.91
2022-08-05T04:18:54.477Z,80.59
2022-08-05T04:22:10.119Z,82.14
2022-08-05T04:24:19.265Z,82.33
2022-08-05T04:26:52.248Z,81.42
2022-08-05T04:29:19.773Z,81.89
2022-08-05T04:31:49.747Z,82.23
2022-08-05T04:34:31.729Z,82.97
2022-08-05T04:37:00.875Z,82.17
2022-08-05T04:39:31.217Z,82.02
2022-08-05T04:41:59.584Z,82.33
2022-08-05T04:44:29.979Z,82.75
2022-08-05T04:47:08.849Z,81.36
2022-08-05T04:50:03.071Z,81.25
2022-08-05T04:52:27.459Z,82.05
2022-08-05T04:54:57.894Z,82.21
2022-08-05T04:57:29.121Z,82.24
2022-08-05T05:00:06.967Z,81.43
2022-08-05T05:02:41.149Z,82.66
2022-08-05T05:05:16.814Z,83.54
2022-08-05T05:08:01.957Z,80.58
2022-08-05T05:10:33.295Z,81.45
2022-08-05T05:13:04.122Z,80.11
2022-08-05T05:15:59.166Z,80.91
2022-08-05T05:18:28.769Z,79.81
2022-08-05T05:21:03.545Z,78.54
2022-08-05T05:24:02.432Z,78.17
2022-08-05T05:26:18.309Z,78.60
2022-08-05T05:28:45.435Z,77.88
2022-08-05T05:31:14.877Z,77.91
2022-08-05T05:33:59.783Z,77.95
2022-08-05T05:36:37.438Z,77.29
2022-08-05T05:39:10.959Z,77.54
2022-08-05T05:41:40.810Z,78.46
2022-08-05T05:44:15.691Z,78.75
2022-08-05T05:47:04.490Z,76.64
2022-08-05T05:49:40.144Z,75.95
2022-08-05T05:52:07.505Z,75.58
2022-08-05T05:54:50.404Z,75.43
2022-08-05T05:57:21.599Z,75.65
2022-08-05T05:59:49.252Z,74.53
2022-08-05T06:02:32.437Z,74.03
2022-08-05T06:05:16.758Z,74.57
2022-08-05T06:07:57.925Z,74.24
2022-08-05T06:10:37.346Z,74.83
2022-08-05T06:13:16.148Z,74.71
2022-08-05T06:16:29.865Z,74.70
2022-08-05T06:18:31.262Z,72.43
2022-08-05T06:20:59.407Z,72.40
2022-08-05T06:23:26.450Z,72.78
2022-08-05T06:26:13.565Z,72.40
2022-08-05T06:28:48.588Z,72.53
2022-08-05T06:31:22.380Z,72.79
2022-08-05T06:34:07.386Z,71.87
2022-08-05T06:36:57.637Z,71.02
2022-08-05T06:39:27.317Z,70.85
2022-08-05T06:41:58.633Z,70.01
2022-08-05T06:44:29.205Z,70.08
2022-08-05T06:46:56.957Z,70.14
2022-08-05T06:50:00.094Z,69.45
2022-08-05T06:52:36.758Z,67.99
2022-08-05T06:55:02.524Z,68.07
2022-08-05T06:57:58.180Z,66.99
2022-08-05T07:00:24.766Z,65.17
2022-08-05T07:02:53.930Z,64.61
2022-08-05T07:05:23.447Z,64.63
2022-08-05T07:08:06.344Z,65.28
2022-08-05T07:10:38.579Z,65.67
2022-08-05T07:13:34.119Z,64.58
2022-08-05T07:17:58.406Z,65.05
2022-08-05T07:19:44.321Z,64.21
2022-08-05T07:22:08.151Z,64.13
2022-08-05T07:24:35.175Z,65.35
2022-08-05T07:27:13.126Z,65.97
2022-08-05T07:30:24.749Z,66.08
2022-08-05T07:32:28.524Z,67.32
2022-08-05T07:34:57.905Z,67.46
2022-08-05T07:37:29.094Z,68.03
2022-08-05T07:40:32.580Z,67.84
2022-08-05T07:42:58.840Z,68.17
2022-08-05T07:45:44.107Z,68.73
2022-08-05T07:48:15.121Z,69.04
2022-08-05T07:51:01.955Z,69.91
2022-08-05T07:53:36.978Z,69.62
2022-08-05T07:57:00.793Z,69.34
2022-08-05T07:59:08.779Z,69.78
2022-08-05T08:01:51.753Z,70.30
2022-08-05T08:04:22.996Z,72.14
2022-08-05T08:07:07.010Z,72.15
2022-08-05T08:09:35.086Z,71.45
2022-08-05T08:12:14.047Z,71.93
2022-08-05T08:14:46.978Z,72.92
2022-08-05T08:17:16.795Z,74.73
2022-08-05T08:20:21.860Z,74.32
2022-08-05T08:22:33.274Z,74.35
2022-08-05T08:25:03.897Z,74.91
2022-08-05T08:27:51.103Z,76.00
2022-08-05T08:30:32.214Z,75.33
2022-08-05T08:33:13.778Z,74.51
2022-08-05T08:35:53.790Z,75.29
2022-08-05T08:38:32.203Z,75.15
2022-08-05T08:41:10.118Z,75.52
2022-08-05T08:45:19.740Z,75.46
2022-08-05T08:46:34.977Z,74.08
2022-08-05T08:50:14.162Z,74.30
2022-08-05T08:52:20.332Z,74.87
2022-08-05T08:54:55.764Z,74.87
2022-08-05T08:57:42.046Z,74.20
2022-08-05T09:00:19.398Z,75.34
2022-08-05T09:02:50.100Z,74.13
2022-08-05T09:05:19.688Z,74.78
2022-08-05T09:08:06.077Z,74.96
2022-08-05T09:10:36.763Z,73.49
2022-08-05T09:13:08.012Z,73.88
2022-08-05T09:15:38.094Z,72.78
2022-08-05T09:18:10.400Z,71.58
2022-08-05T09:20:45.857Z,71.40
2022-08-05T09:23:21.916Z,73.00
2022-08-05T09:26:02.156Z,73.66
2022-08-05T09:28:36.143Z,70.53
2022-08-05T09:31:44.060Z,70.57
2022-08-05T09:34:09.781Z,70.13
2022-08-05T09:36:56.199Z,70.11
2022-08-05T09:39:41.531Z,70.91
2022-08-05T09:42:27.708Z,70.60
2022-08-05T09:44:57.404Z,71.18
2022-08-05T09:47:35.192Z,70.24
2022-08-05T09:50:37.955Z,66.58
2022-08-05T09:53:05.885Z,66.94
2022-08-05T09:55:58.551Z,65.59
2022-08-05T09:58:28.991Z,65.31
2022-08-05T10:01:15.062Z,63.21
2022-08-05T10:04:16.243Z,63.34
2022-08-05T10:06:58.931Z,65.48
2022-08-05T10:09:28.184Z,64.64
2022-08-05T10:12:30.693Z,64.42
2022-08-05T10:15:34.347Z,63.02
2022-08-05T10:18:16.697Z,62.86
2022-08-05T10:20:51.392Z,62.67
2022-08-05T10:23:55.782Z,62.84
2022-08-05T10:26:15.310Z,61.96
2022-08-05T10:28:47.583Z,62.27
2022-08-05T10:32:54.588Z,61.72
2022-08-05T10:34:04.124Z,63.13
2022-08-05T10:36:38.626Z,63.04
2022-08-05T10:39:59.385Z,64.20
2022-08-05T10:42:33.771Z,65.74
2022-08-05T10:45:20.969Z,65.89
2022-08-05T10:48:29.827Z,65.58
2022-08-05T10:51:22.475Z,67.00
2022-08-05T10:53:54.503Z,67.02
2022-08-05T10:56:27.760Z,67.63
2022-08-05T10:58:55.757Z,67.54
2022-08-05T11:01:55.302Z,68.48
2022-08-05T11:04:26.313Z,67.09
2022-08-05T11:07:04.513Z,67.65
2022-08-05T11:10:04.049Z,66.81
2022-08-05T11:12:38.198Z,68.29
2022-08-05T11:15:20.281Z,66.95
2022-08-05T11:18:07.391Z,68.08
2022-08-05T11:20:45.172Z,68.57
2022-08-05T11:24:04.618Z,67.87
2022-08-05T11:26:32.904Z,68.09
2022-08-05T11:29:13.080Z,67.63
2022-08-05T11:31:53.965Z,68.24
2022-08-05T11:34:51.168Z,70.48
2022-08-05T11:38:30.407Z,70.73
2022-08-05T11:41:01.071Z,72.03
2022-08-05T11:44:06.328Z,72.40
2022-08-05T11:46:32.518Z,71.78
2022-08-05T11:49:06.146Z,71.12
2022-08-05T11:51:44.707Z,70.96
2022-08-05T11:54:33.633Z,70.95
2022-08-05T11:57:08.310Z,72.45
2022-08-05T11:59:52.116Z,74.97
2022-08-05T12:02:31.395Z,74.71
2022-08-05T12:05:06.850Z,73.92
2022-08-05T12:08:03.142Z,75.04
2022-08-05T12:10:43.782Z,74.48
2022-08-05T12:13:18.810Z,75.97
2022-08-05T12:16:14.379Z,76.43
2022-08-05T12:18:49.623Z,76.46
2022-08-05T12:21:29.832Z,76.94
2022-08-05T12:24:06.963Z,76.23
2022-08-05T12:26:54.777Z,77.68
2022-08-05T12:29:25.675Z,75.35
2022-08-05T12:31:55.187Z,74.54
2022-08-05T12:34:32.273Z,73.38
2022-08-05T12:37:10.868Z,71.33
2022-08-05T12:39:48.704Z,70.11
2022-08-05T12:42:20.783Z,69.82
2022-08-05T12:44:48.379Z,68.84
2022-08-05T12:47:31.074Z,68.39
2022-08-05T12:50:04.652Z,67.50
2022-08-05T12:52:39.293Z,67.94
2022-08-05T12:55:25.493Z,68.93
2022-08-05T12:58:38.971Z,68.95
2022-08-05T13:02:01.081Z,70.14
2022-08-05T13:03:43.344Z,70.80
2022-08-05T13:06:17.721Z,70.23
2022-08-05T13:08:51.791Z,70.66
2022-08-05T13:11:59.869Z,71.32
2022-08-05T13:14:36.388Z,71.88
2022-08-05T13:17:15.981Z,69.85
2022-08-05T13:20:11.707Z,68.38
2022-08-05T13:22:50.246Z,69.22
2022-08-05T13:25:21.730Z,69.45
2022-08-05T13:27:57.344Z,69.32
2022-08-05T13:30:33.583Z,69.36
2022-08-05T13:33:02.510Z,68.70
2022-08-05T13:35:43.049Z,68.48
2022-08-05T13:38:28.509Z,69.02
2022-08-05T13:41:01.432Z,67.86
2022-08-05T13:43:44.395Z,67.46
2022-08-05T13:46:30.764Z,65.55
2022-08-05T13:49:10.575Z,65.13
2022-08-05T13:51:46.513Z,63.66
2022-08-05T13:54:21.094Z,62.89
2022-08-05T13:56:52.111Z,63.32
2022-08-05T13:59:24.245Z,62.02
2022-08-05T14:01:58.210Z,61.24
2022-08-05T14:04:55.804Z,60.76
2022-08-05T14:08:01.175Z,60.71
2022-08-05T14:10:30.894Z,60.47
2022-08-05T14:12:59.386Z,60.53
2022-08-05T14:16:07.195Z,60.53
2022-08-05T14:18:18.313Z,59.56
2022-08-05T14:20:48.155Z,58.48
2022-08-05T14:23:24.019Z,57.80
2022-08-05T14:25:58.967Z,58.48
2022-08-05T14:28:30.752Z,57.88
2022-08-05T14:31:02.364Z,57.37
2022-08-05T14:33:59.959Z,57.79
2022-08-05T14:36:22.911Z,55.71
2022-08-05T14:38:53.654Z,54.25
2022-08-05T14:41:21.259Z,55.24
2022-08-05T14:44:00.237Z,55.23
2022-08-05T14:46:35.282Z,55.58
2022-08-05T14:49:07.217Z,55.66
2022-08-05T14:51:42.635Z,57.41
2022-08-05T14:54:29.757Z,58.71
2022-08-05T14:56:58.008Z,59.68
2022-08-05T14:59:29.754Z,60.09
2022-08-05T15:02:03.170Z,58.87
2022-08-05T15:04:32.343Z,59.34
2022-08-05T15:06:59.195Z,59.58
2022-08-05T15:09:52.045Z,59.46
2022-08-05T15:12:17.230Z,58.87
2022-08-05T15:14:49.961Z,59.41
2022-08-05T15:17:47.271Z,60.40
2022-08-05T15:20:18.847Z,60.26
2022-08-05T15:22:52.300Z,60.36
2022-08-05T15:25:40.950Z,60.09
2022-08-05T15:28:15.714Z,60.19
2022-08-05T15:30:46.512Z,58.78
2022-08-05T15:34:05.345Z,58.04
2022-08-05T15:36:05.321Z,56.56
2022-08-05T15:38:41.029Z,58.11
2022-08-05T15:41:22.398Z,57.16
2022-08-05T15:43:52.223Z,59.21
2022-08-05T15:46:24.208Z,58.58
2022-08-05T15:49:01.462Z,57.57
2022-08-05T15:52:10.039Z,58.25
2022-08-05T15:54:34.486Z,59.32
2022-08-05T15:57:02.401Z,57.74
2022-08-05T15:59:29.318Z,57.62
2022-08-05T16:01:56.276Z,57.69
2022-08-05T16:04:26.368Z,58.80
2022-08-05T16:06:56.456Z,58.25
2022-08-05T16:09:25.156Z,58.58
2022-08-05T16:11:54.659Z,60.25
2022-08-05T16:14:22.734Z,59.76
2022-08-05T16:16:50.429Z,59.54
2022-08-05T16:19:25.278Z,58.99
2022-08-05T16:22:00.066Z,58.75
2022-08-05T16:24:41.885Z,58.10
2022-08-05T16:27:46.897Z,57.68
2022-08-05T16:30:23.149Z,57.96
2022-08-05T16:32:57.905Z,58.86
2022-08-05T16:35:32.303Z,58.92
2022-08-05T16:38:23.877Z,59.39
2022-08-05T16:41:00.847Z,59.32
2022-08-05T16:43:34.504Z,60.12
2022-08-05T16:46:23.899Z,60.91
2022-08-05T16:48:50.836Z,63.06
2022-08-05T16:51:20.630Z,62.24
2022-08-05T16:54:02.742Z,63.09
2022-08-05T16:56:34.865Z,59.86
2022-08-05T16:59:07.959Z,59.34
2022-08-05T17:01:53.884Z,59.08
2022-08-05T17:04:28.713Z,58.78
2022-08-05T17:07:01.041Z,58.23
2022-08-05T17:09:29.961Z,56.12
2022-08-05T17:12:00.328Z,56.76
2022-08-05T17:14:37.544Z,56.30
2022-08-05T17:17:09.339Z,57.13
2022-08-05T17:19:43.861Z,57.22
2022-08-05T17:22:17.788Z,57.44
2022-08-05T17:24:57.893Z,58.58
2022-08-05T17:27:27.566Z,57.54
2022-08-05T17:30:03.451Z,57.18
2022-08-05T17:32:32.271Z,55.72
2022-08-05T17:35:02.269Z,55.50
2022-08-05T17:37:41.669Z,55.22
2022-08-05T17:40:16.145Z,55.34
2022-08-05T17:42:50.931Z,55.87
2022-08-05T17:45:25.011Z,55.96
2022-08-05T17:47:56.804Z,55.78
2022-08-05T17:50:30.466Z,55.38
2022-08-05T17:53:02.488Z,55.60
2022-08-05T17:55:37.912Z,54.99
2022-08-05T17:58:13.497Z,54.36
2022-08-05T18:00:50.743Z,52.12
2022-08-05T18:06:12.369Z,49.88
2022-08-05T18:08:52.612Z,49.09
2022-08-05T18:11:33.174Z,49.08
2022-08-05T18:14:04.373Z,48.42
2022-08-05T18:16:35.018Z,48.85
2022-08-05T18:19:16.121Z,49.25
2022-08-05T18:22:09.138Z,49.19
2022-08-05T18:24:32.336Z,48.63
2022-08-05T18:26:59.329Z,48.71
2022-08-05T18:29:40.426Z,49.95
2022-08-05T18:32:13.002Z,49.85
2022-08-05T18:34:41.529Z,50.62
2022-08-05T18:37:33.440Z,50.89
2022-08-05T18:40:34.496Z,50.80
2022-08-05T18:42:46.281Z,51.50
2022-08-05T18:45:13.293Z,52.19
2022-08-05T18:47:44.803Z,52.03
2022-08-05T18:50:45.200Z,52.15
2022-08-05T18:53:19.270Z,52.53
2022-08-05T18:55:49.662Z,52.71
2022-08-05T18:58:22.184Z,53.73
2022-08-05T19:00:56.578Z,53.58
2022-08-05T19:03:52.769Z,53.76
2022-08-05T19:06:21.710Z,54.16
2022-08-05T19:08:49.365Z,54.43
2022-08-05T19:11:27.939Z,54.21
2022-08-05T19:14:01.149Z,54.21
2022-08-05T19:16:47.278Z,54.67
2022-08-05T19:19:20.947Z,54.83
2022-08-05T19:21:51.675Z,54.46
2022-08-05T19:24:34.337Z,55.15
2022-08-05T19:27:04.203Z,55.01
2022-08-05T19:29:35.869Z,54.72
2022-08-05T19:32:04.676Z,55.73
2022-08-05T19:34:33.748Z,55.72
2022-08-05T19:37:01.138Z,56.13
2022-08-05T19:39:33.095Z,56.46
2022-08-05T19:42:13.522Z,56.13
2022-08-05T19:44:45.223Z,56.89
2022-08-05T19:47:15.209Z,58.03
2022-08-05T19:49:44.698Z,57.20
2022-08-05T19:52:30.448Z,57.19
2022-08-05T19:55:06.891Z,57.16
2022-08-05T19:58:07.096Z,57.64
2022-08-05T20:00:35.807Z,57.47
2022-08-05T20:03:08.568Z,58.19
2022-08-05T20:05:43.108Z,58.08
2022-08-05T20:08:24.577Z,57.99
2022-08-05T20:10:55.420Z,57.79
2022-08-05T20:13:29.813Z,57.96
2022-08-05T20:16:13.981Z,57.40
2022-08-05T20:18:50.893Z,57.93
2022-08-05T20:21:22.886Z,57.74
2022-08-05T20:23:53.268Z,56.89
2022-08-05T20:26:27.053Z,56.91
2022-08-05T20:29:01.584Z,57.15
2022-08-05T20:31:43.037Z,57.69
2022-08-05T20:34:19.431Z,57.62
2022-08-05T20:36:49.113Z,57.00
2022-08-05T20:39:17.137Z,57.61
2022-08-05T20:41:45.222Z,57.70
2022-08-05T20:44:28.983Z,56.86
2022-08-05T20:47:05.034Z,57.60
2022-08-05T20:49:39.467Z,57.91
2022-08-05T20:52:08.364Z,58.05
2022-08-05T20:54:59.781Z,58.28
2022-08-05T20:57:24.496Z,58.21
2022-08-05T21:00:40.502Z,58.49
2022-08-05T21:03:06.318Z,58.42
2022-08-05T21:05:48.378Z,59.33
2022-08-05T21:08:26.763Z,58.86
2022-08-05T21:11:00.470Z,59.26
2022-08-05T21:13:48.108Z,59.84
2022-08-05T21:16:30.153Z,60.08
2022-08-05T21:19:03.477Z,60.05
2022-08-05T21:21:43.956Z,60.45
2022-08-05T21:24:20.037Z,60.41
2022-08-05T21:26:58.446Z,61.18
2022-08-05T21:29:31.749Z,60.95
2022-08-05T21:32:02.942Z,62.01
2022-08-05T21:34:31.667Z,61.86
2022-08-05T21:37:00.214Z,62.05
2022-08-05T21:39:29.856Z,61.88
2022-08-05T21:42:01.835Z,62.30
2022-08-05T21:44:30.472Z,62.21
2022-08-05T21:46:58.494Z,62.76
2022-08-05T21:50:00.060Z,63.76
2022-08-05T21:52:27.683Z,63.27
2022-08-05T21:54:57.658Z,63.63
2022-08-05T21:57:33.798Z,63.67
2022-08-05T22:00:05.903Z,64.14
2022-08-05T22:02:34.150Z,64.36
2022-08-05T22:05:01.084Z,64.51
2022-08-05T22:07:40.293Z,64.60
2022-08-05T22:10:17.254Z,66.08
2022-08-05T22:12:53.389Z,66.10
2022-08-05T22:16:00.285Z,66.79
2022-08-05T22:18:11.875Z,67.35
2022-08-05T22:20:39.805Z,67.06
2022-08-05T22:24:02.056Z,67.30
2022-08-05T22:26:31.325Z,67.36
2022-08-05T22:29:00.718Z,67.80
2022-08-05T22:31:30.191Z,67.46
2022-08-05T22:34:01.115Z,68.22
2022-08-05T22:36:31.678Z,68.46
2022-08-05T22:39:04.055Z,68.54
2022-08-05T22:42:09.251Z,67.91
2022-08-05T22:44:29.216Z,68.13
2022-08-05T22:46:58.389Z,69.25
2022-08-05T22:50:21.666Z,69.80
2022-08-05T22:52:30.465Z,69.17
2022-08-05T22:55:18.928Z,69.13
2022-08-05T22:57:49.267Z,68.83
2022-08-05T23:00:18.325Z,69.85
2022-08-05T23:02:48.977Z,70.65
2022-08-05T23:05:16.594Z,70.76
2022-08-05T23:07:45.084Z,70.25
2022-08-05T23:10:16.441Z,70.43
2022-08-05T23:12:51.548Z,71.23
2022-08-05T23:15:27.016Z,71.55
2022-08-05T23:18:01.154Z,70.36
2022-08-05T23:20:32.799Z,71.51
2022-08-05T23:23:00.839Z,70.79
2022-08-05T23:25:53.302Z,72.17
2022-08-05T23:28:27.826Z,71.45
2022-08-05T23:30:56.761Z,71.52
2022-08-05T23:34:05.216Z,71.30
2022-08-05T23:36:39.803Z,71.57
2022-08-05T23:39:17.294Z,71.99
2022-08-05T23:42:02.202Z,71.41
2022-08-05T23:44:32.292Z,72.45
2022-08-05T23:47:14.493Z,71.71
2022-08-05T23:49:46.390Z,71.92
2022-08-05T23:52:32.144Z,71.74
2022-08-05T23:55:08.954Z,72.22
2022-08-05T23:57:36.430Z,73.40
